createdAt,value
2022-09-26T00:01:38.029Z,13.13
2022-09-26T00:04:23.335Z,13.03
2022-09-26T00:06:53.542Z,13.11
2022-09-26T00:09:23.305Z,13.08
2022-09-26T00:11:51.696Z,13.20
2022-09-26T00:14:24.698Z,13.08
2022-09-26T00:16:52.894Z,13.25
2022-09-26T00:19:21.644Z,13.32
2022-09-26T00:21:49.575Z,13.46
2022-09-26T00:24:17.394Z,13.36
2022-09-26T00:26:44.970Z,13.16
2022-09-26T00:29:14.089Z,13.16
2022-09-26T00:31:44.921Z,13.31
2022-09-26T00:34:15.992Z,13.04
2022-09-26T00:36:43.836Z,12.97
2022-09-26T00:39:15.743Z,13.18
2022-09-26T00:41:44.139Z,13.06
2022-09-26T00:44:49.877Z,13.13
2022-09-26T00:47:41.756Z,12.85
2022-09-26T00:50:40.883Z,12.66
2022-09-26T00:53:17.822Z,12.64
2022-09-26T00:55:54.899Z,12.80
2022-09-26T00:58:39.196Z,12.71
2022-09-26T01:01:08.291Z,12.65
2022-09-26T01:03:38.509Z,12.64
2022-09-26T01:06:06.505Z,12.67
2022-09-26T01:08:40.809Z,12.64
2022-09-26T01:11:13.606Z,12.55
2022-09-26T01:13:45.043Z,12.72
2022-09-26T01:16:13.105Z,12.90
2022-09-26T01:18:41.036Z,12.73
2022-09-26T01:22:11.662Z,12.68
2022-09-26T01:24:55.735Z,12.45
2022-09-26T01:27:45.033Z,12.32
2022-09-26T01:30:18.916Z,12.29
2022-09-26T01:33:12.757Z,12.22
2022-09-26T01:36:06.066Z,12.12
2022-09-26T01:39:26.680Z,12.10
2022-09-26T01:42:23.379Z,12.15
2022-09-26T01:45:08.014Z,11.99
2022-09-26T01:47:42.555Z,11.88
2022-09-26T01:50:53.444Z,11.83
2022-09-26T01:54:04.687Z,11.88
2022-09-26T01:56:38.936Z,11.93
2022-09-26T01:59:30.578Z,11.91
2022-09-26T02:02:14.859Z,11.69
2022-09-26T02:04:49.019Z,11.71
2022-09-26T02:07:21.764Z,11.81
2022-09-26T02:09:59.310Z,11.66
2022-09-26T02:12:39.671Z,11.61
2022-09-26T02:15:13.378Z,11.60
2022-09-26T02:17:49.812Z,11.54
2022-09-26T02:20:32.989Z,11.54
2022-09-26T02:23:05.071Z,11.55
2022-09-26T02:25:34.492Z,11.53
2022-09-26T02:28:02.320Z,11.56
2022-09-26T02:30:30.575Z,11.60
2022-09-26T02:32:59.458Z,11.59
2022-09-26T02:35:47.237Z,11.52
2022-09-26T02:38:17.462Z,11.46
2022-09-26T02:41:36.645Z,11.73
2022-09-26T02:44:24.461Z,11.87
2022-09-26T02:47:25.312Z,11.79
2022-09-26T02:49:55.795Z,11.98
2022-09-26T02:52:48.357Z,12.00
2022-09-26T02:55:26.404Z,11.82
2022-09-26T02:58:05.582Z,11.85
2022-09-26T03:00:48.690Z,11.72
2022-09-26T03:03:35.910Z,11.91
2022-09-26T03:06:08.426Z,11.95
2022-09-26T03:08:44.624Z,11.82
2022-09-26T03:11:19.249Z,11.65
2022-09-26T03:13:48.671Z,11.76
2022-09-26T03:16:17.457Z,11.70
2022-09-26T03:19:30.245Z,11.63
2022-09-26T03:22:00.062Z,11.60
2022-09-26T03:24:29.125Z,11.40
2022-09-26T03:27:00.643Z,11.47
2022-09-26T03:29:28.337Z,11.18
2022-09-26T03:31:56.197Z,11.16
2022-09-26T03:34:23.832Z,11.11
2022-09-26T03:36:51.899Z,11.10
2022-09-26T03:39:19.570Z,11.08
2022-09-26T03:42:10.087Z,11.06
2022-09-26T03:44:39.022Z,11.00
2022-09-26T03:47:13.621Z,10.96
2022-09-26T03:49:43.170Z,11.08
2022-09-26T03:52:13.017Z,11.16
2022-09-26T03:54:41.286Z,11.06
2022-09-26T03:57:15.944Z,10.89
2022-09-26T03:59:49.897Z,10.84
2022-09-26T04:02:21.999Z,10.85
2022-09-26T04:05:01.951Z,11.11
2022-09-26T04:07:29.580Z,11.26
2022-09-26T04:09:57.897Z,11.16
2022-09-26T04:12:25.785Z,11.28
2022-09-26T04:14:55.021Z,11.28
2022-09-26T04:17:22.512Z,11.33
2022-09-26T04:19:49.985Z,11.04
2022-09-26T04:22:17.521Z,10.86
2022-09-26T04:24:45.332Z,10.76
2022-09-26T04:27:15.529Z,10.92
2022-09-26T04:29:46.183Z,11.02
2022-09-26T04:32:19.771Z,11.06
2022-09-26T04:35:13.130Z,11.15
2022-09-26T04:37:41.209Z,11.35
2022-09-26T04:40:11.321Z,11.43
2022-09-26T04:42:45.231Z,11.47
2022-09-26T04:45:12.943Z,11.43
2022-09-26T04:47:40.378Z,11.56
2022-09-26T04:50:26.401Z,11.45
2022-09-26T04:53:08.154Z,11.52
2022-09-26T04:56:01.051Z,11.49
2022-09-26T04:58:32.749Z,11.56
2022-09-26T05:01:06.059Z,11.69
2022-09-26T05:03:45.522Z,11.59
2022-09-26T05:06:15.587Z,11.67
2022-09-26T05:08:46.517Z,11.83
2022-09-26T05:11:18.205Z,12.12
2022-09-26T05:13:49.059Z,12.22
2022-09-26T05:16:20.133Z,12.47
2022-09-26T05:18:51.996Z,12.67
2022-09-26T05:21:19.979Z,12.79
2022-09-26T05:24:07.445Z,13.07
2022-09-26T05:26:44.421Z,13.18
2022-09-26T05:29:12.490Z,13.30
2022-09-26T05:31:46.960Z,13.26
2022-09-26T05:34:19.555Z,13.28
2022-09-26T05:36:48.567Z,13.30
2022-09-26T05:39:39.018Z,13.29
2022-09-26T05:42:10.812Z,13.50
2022-09-26T05:44:39.902Z,13.74
2022-09-26T05:47:09.019Z,13.71
2022-09-26T05:49:38.419Z,13.86
2022-09-26T05:52:06.760Z,14.01
2022-09-26T05:54:34.210Z,13.98
2022-09-26T05:57:21.285Z,13.82
2022-09-26T05:59:55.050Z,13.99
2022-09-26T06:02:25.393Z,14.24
2022-09-26T06:05:19.784Z,14.31
2022-09-26T06:08:09.995Z,14.66
2022-09-26T06:10:45.631Z,14.75
2022-09-26T06:13:15.378Z,14.95
2022-09-26T06:15:50.044Z,15.25
2022-09-26T06:18:18.275Z,15.51
2022-09-26T06:20:46.044Z,15.63
2022-09-26T06:23:14.345Z,15.89
2022-09-26T06:25:44.950Z,15.99
2022-09-26T06:28:13.762Z,15.96
2022-09-26T06:30:41.702Z,16.12
2022-09-26T06:33:14.618Z,16.36
2022-09-26T06:36:12.873Z,16.57
2022-09-26T06:38:44.033Z,16.65
2022-09-26T06:41:16.690Z,16.80
2022-09-26T06:43:47.851Z,16.90
2022-09-26T06:46:34.051Z,17.15
2022-09-26T06:49:21.942Z,17.32
2022-09-26T06:52:03.439Z,17.30
2022-09-26T06:54:31.090Z,17.39
2022-09-26T06:56:58.661Z,17.77
2022-09-26T06:59:26.370Z,18.02
2022-09-26T07:02:12.077Z,18.07
2022-09-26T07:04:54.762Z,18.24
2022-09-26T07:07:41.995Z,19.07
2022-09-26T07:10:16.737Z,18.50
2022-09-26T07:13:03.223Z,18.53
2022-09-26T07:15:34.033Z,19.17
2022-09-26T07:18:07.830Z,18.97
2022-09-26T07:20:56.909Z,18.70
2022-09-26T07:23:36.432Z,18.69
2022-09-26T07:26:04.139Z,18.69
2022-09-26T07:28:31.711Z,18.86
2022-09-26T07:30:59.685Z,19.36
2022-09-26T07:34:04.152Z,19.36
2022-09-26T07:36:32.497Z,19.84
2022-09-26T07:39:03.779Z,19.78
2022-09-26T07:41:31.888Z,20.03
2022-09-26T07:47:07.465Z,20.17
2022-09-26T07:49:54.677Z,20.72
2022-09-26T07:52:59.127Z,21.16
2022-09-26T07:55:29.800Z,21.16
2022-09-26T07:58:09.031Z,20.78
2022-09-26T08:00:59.643Z,20.80
2022-09-26T08:04:06.556Z,20.60
2022-09-26T08:06:40.513Z,21.04
2022-09-26T08:09:08.847Z,21.42
2022-09-26T08:12:05.982Z,21.67
2022-09-26T08:14:53.839Z,21.40
2022-09-26T08:30:34.797Z,22.33
2022-09-26T08:35:48.601Z,22.88
2022-09-26T08:38:38.293Z,23.13
2022-09-26T08:41:32.721Z,23.24
2022-09-26T08:45:01.233Z,23.33
2022-09-26T08:47:50.486Z,23.49
2022-09-26T08:50:54.286Z,23.90
2022-09-26T08:53:48.772Z,23.94
2022-09-26T08:56:35.773Z,24.26
2022-09-26T08:59:09.276Z,24.28
2022-09-26T09:01:41.257Z,24.40
2022-09-26T09:04:41.324Z,24.71
2022-09-26T09:07:25.437Z,24.51
2022-09-26T09:10:05.445Z,24.33
2022-09-26T09:13:15.010Z,24.66
2022-09-26T09:16:25.528Z,24.38
2022-09-26T09:19:40.413Z,24.32
2022-09-26T09:22:35.869Z,24.49
2022-09-26T09:25:29.323Z,24.52
2022-09-26T09:28:27.675Z,25.04
2022-09-26T09:31:04.395Z,25.03
2022-09-26T09:33:47.612Z,25.25
2022-09-26T09:36:42.209Z,25.44
2022-09-26T09:39:44.052Z,25.78
2022-09-26T09:42:48.631Z,25.70
2022-09-26T09:45:34.148Z,25.78
2022-09-26T09:48:01.960Z,26.02
2022-09-26T09:50:50.181Z,25.91
2022-09-26T09:53:54.159Z,26.25
2022-09-26T09:56:52.081Z,26.42
2022-09-26T10:00:05.249Z,26.37
2022-09-26T10:03:01.623Z,26.40
2022-09-26T10:05:42.795Z,26.60
2022-09-26T10:08:35.804Z,26.92
2022-09-26T10:11:27.225Z,27.23
2022-09-26T10:14:03.467Z,27.12
2022-09-26T10:17:10.644Z,27.10
2022-09-26T10:19:58.407Z,27.48
2022-09-26T10:22:37.885Z,27.44
2022-09-26T10:25:22.719Z,27.63
2022-09-26T10:27:58.221Z,28.22
2022-09-26T10:30:48.047Z,28.15
2022-09-26T10:33:29.387Z,28.48
2022-09-26T10:36:21.385Z,28.40
2022-09-26T10:39:22.074Z,28.44
2022-09-26T10:42:00.277Z,28.31
2022-09-26T10:44:38.425Z,28.15
2022-09-26T10:47:14.066Z,28.67
2022-09-26T10:50:26.203Z,28.31
2022-09-26T10:53:40.158Z,28.06
2022-09-26T10:56:16.934Z,27.92
2022-09-26T10:58:47.427Z,28.14
2022-09-26T11:01:23.380Z,27.95
2022-09-26T11:03:53.005Z,27.76
2022-09-26T11:06:31.691Z,28.02
2022-09-26T11:09:05.664Z,28.40
2022-09-26T11:11:53.257Z,28.93
2022-09-26T11:14:31.228Z,29.03
2022-09-26T11:17:03.368Z,29.74
2022-09-26T11:19:58.375Z,29.61
2022-09-26T11:22:42.770Z,29.09
2022-09-26T11:25:25.702Z,28.97
2022-09-26T11:28:34.462Z,29.17
2022-09-26T11:31:34.606Z,29.62
2022-09-26T11:34:36.698Z,30.18
2022-09-26T11:37:31.085Z,30.20
2022-09-26T11:40:20.682Z,30.48
2022-09-26T11:43:31.516Z,30.90
2022-09-26T11:46:38.502Z,31.09
2022-09-26T11:49:59.213Z,30.88
2022-09-26T11:53:08.197Z,30.53
2022-09-26T11:56:16.056Z,30.77
2022-09-26T11:59:32.752Z,31.22
2022-09-26T12:02:31.843Z,30.57
2022-09-26T12:05:36.500Z,30.42
2022-09-26T12:08:19.323Z,30.20
2022-09-26T12:11:00.346Z,30.12
2022-09-26T12:13:40.427Z,29.67
2022-09-26T12:16:45.684Z,29.78
2022-09-26T12:19:16.621Z,29.86
2022-09-26T12:22:33.356Z,29.83
2022-09-26T12:25:27.904Z,29.93
2022-09-26T12:28:11.552Z,30.15
2022-09-26T12:31:09.739Z,30.81
2022-09-26T12:34:24.704Z,30.96
2022-09-26T12:37:10.088Z,30.87
2022-09-26T12:40:37.492Z,30.49
2022-09-26T12:43:51.682Z,30.65
2022-09-26T12:46:59.229Z,30.76
2022-09-26T12:50:08.107Z,31.52
2022-09-26T12:52:59.973Z,31.91
2022-09-26T12:55:33.108Z,32.52
2022-09-26T12:58:40.269Z,33.08
2022-09-26T13:01:36.040Z,33.58
2022-09-26T13:04:34.176Z,33.66
2022-09-26T13:07:20.326Z,33.30
2022-09-26T13:10:15.787Z,33.13
2022-09-26T13:12:49.122Z,33.03
2022-09-26T13:15:40.208Z,33.52
2022-09-26T13:18:33.270Z,34.10
2022-09-26T13:21:13.330Z,34.75
2022-09-26T13:23:47.269Z,35.33
2022-09-26T13:26:29.070Z,35.76
2022-09-26T13:29:17.509Z,36.04
2022-09-26T13:32:22.790Z,36.66
2022-09-26T13:35:05.973Z,36.89
2022-09-26T13:37:36.186Z,37.27
2022-09-26T13:40:23.599Z,37.63
2022-09-26T13:43:43.606Z,38.04
2022-09-26T13:46:29.007Z,38.08
2022-09-26T13:49:02.796Z,38.04
2022-09-26T13:52:20.656Z,38.16
2022-09-26T13:55:04.235Z,38.63
2022-09-26T13:57:50.424Z,38.31
2022-09-26T14:00:24.372Z,37.93
2022-09-26T14:03:16.775Z,37.42
2022-09-26T14:05:44.332Z,37.55
2022-09-26T14:08:53.441Z,37.00
2022-09-26T14:11:32.601Z,37.72
2022-09-26T14:14:21.519Z,37.89
2022-09-26T14:17:20.140Z,38.37
2022-09-26T14:19:53.351Z,38.37
2022-09-26T14:22:37.786Z,37.99
2022-09-26T14:25:46.669Z,37.53
2022-09-26T14:28:38.857Z,36.81
2022-09-26T14:31:25.164Z,36.28
2022-09-26T14:34:21.299Z,36.04
2022-09-26T14:36:53.840Z,35.67
2022-09-26T14:39:35.239Z,35.71
2022-09-26T14:42:23.655Z,36.25
2022-09-26T14:44:58.228Z,36.24
2022-09-26T14:47:30.164Z,35.88
2022-09-26T14:50:25.513Z,35.72
2022-09-26T14:52:59.554Z,35.87
2022-09-26T14:55:29.571Z,36.15
2022-09-26T14:58:37.970Z,36.80
2022-09-26T15:01:18.951Z,37.16
2022-09-26T15:04:01.525Z,37.43
2022-09-26T15:06:32.093Z,36.99
2022-09-26T15:09:00.040Z,36.21
2022-09-26T15:11:58.291Z,35.20
2022-09-26T15:14:37.967Z,33.82
2022-09-26T15:17:07.181Z,32.69
2022-09-26T15:19:49.111Z,32.17
2022-09-26T15:22:25.387Z,31.50
2022-09-26T15:25:22.844Z,31.07
2022-09-26T15:27:54.221Z,30.63
2022-09-26T15:30:35.312Z,30.23
2022-09-26T15:33:04.149Z,29.94
2022-09-26T15:35:33.299Z,29.68
2022-09-26T15:38:12.462Z,29.40
2022-09-26T15:40:40.069Z,29.53
2022-09-26T15:43:22.432Z,28.98
2022-09-26T15:46:03.473Z,28.83
2022-09-26T15:48:34.107Z,28.65
2022-09-26T15:51:23.748Z,28.08
2022-09-26T15:53:57.967Z,27.77
2022-09-26T15:56:32.828Z,27.38
2022-09-26T15:59:27.992Z,27.09
2022-09-26T16:01:56.241Z,27.10
2022-09-26T16:04:25.142Z,26.86
2022-09-26T16:06:58.738Z,26.70
2022-09-26T16:09:44.167Z,26.60
2022-09-26T16:12:20.035Z,26.50
2022-09-26T16:14:52.322Z,26.23
2022-09-26T16:17:32.550Z,26.03
2022-09-26T16:20:22.851Z,25.87
2022-09-26T16:23:05.202Z,25.89
2022-09-26T16:25:48.147Z,25.81
2022-09-26T16:28:17.737Z,25.67
2022-09-26T16:30:53.217Z,25.50
2022-09-26T16:33:35.808Z,25.31
2022-09-26T16:36:32.656Z,25.06
2022-09-26T16:39:07.359Z,25.06
2022-09-26T16:44:44.842Z,24.72
2022-09-26T16:47:43.234Z,24.65
2022-09-26T16:50:37.523Z,24.46
2022-09-26T16:53:10.239Z,24.47
2022-09-26T16:55:38.973Z,24.42
2022-09-26T16:58:13.897Z,24.37
2022-09-26T17:01:02.918Z,24.34
2022-09-26T17:03:33.991Z,24.40
2022-09-26T17:06:02.014Z,24.20
2022-09-26T17:08:30.622Z,24.14
2022-09-26T17:11:03.391Z,24.09
2022-09-26T17:13:35.223Z,24.08
2022-09-26T17:16:04.018Z,24.06
2022-09-26T17:18:33.403Z,24.02
2022-09-26T17:21:01.575Z,24.02
2022-09-26T17:23:42.064Z,24.00
2022-09-26T17:26:20.126Z,23.89
2022-09-26T17:28:48.500Z,23.96
2022-09-26T17:31:21.887Z,23.95
2022-09-26T17:33:52.637Z,23.97
2022-09-26T17:36:29.060Z,24.00
2022-09-26T17:39:02.796Z,24.04
2022-09-26T17:41:33.747Z,24.01
2022-09-26T17:44:02.494Z,23.84
2022-09-26T17:46:30.626Z,23.80
2022-09-26T17:48:59.405Z,23.75
2022-09-26T17:51:27.126Z,23.71
2022-09-26T17:53:57.527Z,23.71
2022-09-26T17:56:26.405Z,23.70
2022-09-26T17:58:56.981Z,23.70
2022-09-26T18:01:34.144Z,23.64
2022-09-26T18:04:07.558Z,23.59
2022-09-26T18:06:36.921Z,23.57
2022-09-26T18:09:10.555Z,23.50
2022-09-26T18:11:44.515Z,23.51
2022-09-26T18:14:20.810Z,23.43
2022-09-26T18:16:48.353Z,23.29
2022-09-26T18:19:16.170Z,23.34
2022-09-26T18:21:43.914Z,23.29
2022-09-26T18:24:19.853Z,23.31
2022-09-26T18:26:53.329Z,23.21
2022-09-26T18:29:54.705Z,23.23
2022-09-26T18:32:37.527Z,23.10
2022-09-26T18:35:22.151Z,23.08
2022-09-26T18:37:51.413Z,23.01
2022-09-26T18:40:19.579Z,23.03
2022-09-26T18:42:47.309Z,23.03
2022-09-26T18:45:32.823Z,22.99
2022-09-26T18:48:12.265Z,23.02
2022-09-26T18:50:40.724Z,22.96
2022-09-26T18:53:17.755Z,22.95
2022-09-26T18:56:09.530Z,22.88
2022-09-26T18:58:58.993Z,22.87
2022-09-26T19:01:38.788Z,22.77
2022-09-26T19:04:31.885Z,22.83
2022-09-26T19:07:08.545Z,22.85
2022-09-26T19:09:38.040Z,22.71
2022-09-26T19:12:09.978Z,22.72
2022-09-26T19:14:38.151Z,22.67
2022-09-26T19:17:08.762Z,22.59
2022-09-26T19:19:39.009Z,22.52
2022-09-26T19:22:16.360Z,22.65
2022-09-26T19:25:00.862Z,22.59
2022-09-26T19:27:43.155Z,22.92
2022-09-26T19:30:21.231Z,22.76
2022-09-26T19:32:53.959Z,22.56
2022-09-26T19:35:40.253Z,22.53
2022-09-26T19:38:30.879Z,22.46
2022-09-26T19:40:58.962Z,22.37
2022-09-26T19:43:26.674Z,22.31
2022-09-26T19:45:58.415Z,22.32
2022-09-26T19:48:27.378Z,22.37
2022-09-26T19:50:56.717Z,22.27
2022-09-26T19:53:25.643Z,22.24
2022-09-26T19:55:54.116Z,22.23
2022-09-26T19:58:26.145Z,22.12
2022-09-26T20:01:01.454Z,22.08
2022-09-26T20:03:42.884Z,22.00
2022-09-26T20:06:31.017Z,21.99
2022-09-26T20:09:01.668Z,21.93
2022-09-26T20:11:29.532Z,22.00
2022-09-26T20:14:15.893Z,21.96
2022-09-26T20:16:44.203Z,21.83
2022-09-26T20:19:30.503Z,21.88
2022-09-26T20:22:02.410Z,21.81
2022-09-26T20:24:33.475Z,21.82
2022-09-26T20:27:06.977Z,21.69
2022-09-26T20:29:55.501Z,21.57
2022-09-26T20:32:24.191Z,21.44
2022-09-26T20:34:51.914Z,21.38
2022-09-26T20:37:23.477Z,21.25
2022-09-26T20:39:52.561Z,21.25
2022-09-26T20:42:20.463Z,21.21
2022-09-26T20:44:50.821Z,21.15
2022-09-26T20:47:21.368Z,21.04
2022-09-26T20:50:00.887Z,20.92
2022-09-26T20:52:30.722Z,20.97
2022-09-26T20:54:58.389Z,20.80
2022-09-26T20:57:26.328Z,20.79
2022-09-26T20:59:53.868Z,20.77
2022-09-26T21:02:51.409Z,20.68
2022-09-26T21:05:27.394Z,20.60
2022-09-26T21:07:57.975Z,20.64
2022-09-26T21:10:25.865Z,20.71
2022-09-26T21:12:53.961Z,20.77
2022-09-26T21:15:23.916Z,20.57
2022-09-26T21:17:53.450Z,20.59
2022-09-26T21:20:31.271Z,20.38
2022-09-26T21:23:23.039Z,20.38
2022-09-26T21:25:51.183Z,20.33
2022-09-26T21:28:26.581Z,20.32
2022-09-26T21:31:03.320Z,20.28
2022-09-26T21:33:31.096Z,20.33
2022-09-26T21:35:58.796Z,20.21
2022-09-26T21:38:27.373Z,20.21
2022-09-26T21:41:00.413Z,20.11
2022-09-26T21:43:32.851Z,20.08
2022-09-26T21:46:00.409Z,20.10
2022-09-26T21:48:28.160Z,20.12
2022-09-26T21:51:00.345Z,20.05
2022-09-26T21:54:06.411Z,19.91
2022-09-26T21:56:49.341Z,19.95
2022-09-26T21:59:20.061Z,19.83
2022-09-26T22:01:47.830Z,19.95
2022-09-26T22:04:15.751Z,19.89
2022-09-26T22:06:43.364Z,19.92
2022-09-26T22:09:11.142Z,19.87
2022-09-26T22:11:39.373Z,19.98
2022-09-26T22:14:07.555Z,20.01
2022-09-26T22:16:35.204Z,19.91
2022-09-26T22:19:04.289Z,19.94
2022-09-26T22:21:32.378Z,19.95
2022-09-26T22:24:00.165Z,20.00
2022-09-26T22:26:27.683Z,19.93
2022-09-26T22:28:55.468Z,19.91
2022-09-26T22:31:23.023Z,20.00
2022-09-26T22:33:50.541Z,19.96
2022-09-26T22:36:18.161Z,20.10
2022-09-26T22:38:45.888Z,20.35
2022-09-26T22:41:13.516Z,20.32
2022-09-26T22:43:41.027Z,20.11
2022-09-26T22:46:11.971Z,19.89
2022-09-26T22:48:43.693Z,19.74
2022-09-26T22:51:11.689Z,19.87
2022-09-26T22:53:41.126Z,19.83
2022-09-26T22:56:12.890Z,19.73
2022-09-26T22:58:49.936Z,19.72
2022-09-26T23:01:29.151Z,19.65
2022-09-26T23:03:59.390Z,19.58
2022-09-26T23:06:27.882Z,19.58
2022-09-26T23:08:55.896Z,19.66
2022-09-26T23:11:24.815Z,19.53
2022-09-26T23:13:53.816Z,19.54
2022-09-26T23:16:24.199Z,19.60
2022-09-26T23:18:52.683Z,19.63
2022-09-26T23:21:23.596Z,19.54
2022-09-26T23:23:57.053Z,19.51
2022-09-26T23:26:32.506Z,19.47
2022-09-26T23:29:00.922Z,19.45
2022-09-26T23:31:29.723Z,19.38
2022-09-26T23:33:57.762Z,19.34
2022-09-26T23:36:25.788Z,19.43
2022-09-26T23:38:54.765Z,19.28
2022-09-26T23:41:22.372Z,19.25
2022-09-26T23:43:50.204Z,19.30
2022-09-26T23:46:17.951Z,19.35
2022-09-26T23:48:46.879Z,19.37
2022-09-26T23:51:14.500Z,19.45
2022-09-26T23:53:42.163Z,19.41
2022-09-26T23:56:14.124Z,19.45
2022-09-26T23:58:42.714Z,19.19
